sensor_id;sensor_type;location;lat;lon;timestamp;P1;durP1;ratioP1;P2;durP2;ratioP2
16792;SDS011;8513;42.662;23.350;2023-02-28T00:00:49;16.03;;;14.33;;
16792;SDS011;8513;42.662;23.350;2023-02-28T00:03:14;16.63;;;14.90;;
16792;SDS011;8513;42.662;23.350;2023-02-28T00:05:40;16.47;;;14.67;;
16792;SDS011;8513;42.662;23.350;2023-02-28T00:08:06;17.27;;;15.47;;
16792;SDS011;8513;42.662;23.350;2023-02-28T00:10:32;16.93;;;14.97;;
16792;SDS011;8513;42.662;23.350;2023-02-28T00:13:00;18.23;;;16.43;;
16792;SDS011;8513;42.662;23.350;2023-02-28T00:15:29;17.27;;;15.57;;
16792;SDS011;8513;42.662;23.350;2023-02-28T00:17:55;18.47;;;16.47;;
16792;SDS011;8513;42.662;23.350;2023-02-28T00:20:21;19.70;;;16.47;;
16792;SDS011;8513;42.662;23.350;2023-02-28T00:22:49;19.50;;;17.30;;
16792;SDS011;8513;42.662;23.350;2023-02-28T00:25:17;18.23;;;16.37;;
16792;SDS011;8513;42.662;23.350;2023-02-28T00:27:45;18.47;;;15.50;;
16792;SDS011;8513;42.662;23.350;2023-02-28T00:30:12;19.33;;;16.50;;
16792;SDS011;8513;42.662;23.350;2023-02-28T00:32:39;16.87;;;15.07;;
16792;SDS011;8513;42.662;23.350;2023-02-28T00:35:05;18.47;;;16.47;;
16792;SDS011;8513;42.662;23.350;2023-02-28T00:37:31;16.73;;;15.10;;
16792;SDS011;8513;42.662;23.350;2023-02-28T00:39:57;19.07;;;16.73;;
16792;SDS011;8513;42.662;23.350;2023-02-28T00:42:29;18.67;;;15.77;;
16792;SDS011;8513;42.662;23.350;2023-02-28T00:44:55;17.47;;;15.50;;
16792;SDS011;8513;42.662;23.350;2023-02-28T00:47:20;18.43;;;16.60;;
16792;SDS011;8513;42.662;23.350;2023-02-28T00:49:46;19.73;;;17.73;;
16792;SDS011;8513;42.662;23.350;2023-02-28T00:52:11;19.00;;;16.80;;
16792;SDS011;8513;42.662;23.350;2023-02-28T00:54:37;17.83;;;15.53;;
16792;SDS011;8513;42.662;23.350;2023-02-28T00:57:02;18.20;;;15.93;;
16792;SDS011;8513;42.662;23.350;2023-02-28T00:59:27;18.30;;;16.33;;
16792;SDS011;8513;42.662;23.350;2023-02-28T01:01:53;19.53;;;16.37;;
16792;SDS011;8513;42.662;23.350;2023-02-28T01:04:18;18.23;;;15.57;;
16792;SDS011;8513;42.662;23.350;2023-02-28T01:06:44;22.13;;;17.40;;
16792;SDS011;8513;42.662;23.350;2023-02-28T01:09:10;18.47;;;16.57;;
16792;SDS011;8513;42.662;23.350;2023-02-28T01:11:35;19.47;;;16.80;;
16792;SDS011;8513;42.662;23.350;2023-02-28T01:14:01;18.83;;;16.77;;
16792;SDS011;8513;42.662;23.350;2023-02-28T01:16:27;20.63;;;17.83;;
16792;SDS011;8513;42.662;23.350;2023-02-28T01:18:53;20.93;;;18.43;;
16792;SDS011;8513;42.662;23.350;2023-02-28T01:21:19;20.40;;;18.33;;
16792;SDS011;8513;42.662;23.350;2023-02-28T01:23:45;20.70;;;18.47;;
16792;SDS011;8513;42.662;23.350;2023-02-28T01:26:15;22.23;;;18.77;;
16792;SDS011;8513;42.662;23.350;2023-02-28T01:28:43;21.60;;;19.40;;
16792;SDS011;8513;42.662;23.350;2023-02-28T01:31:09;21.43;;;19.17;;
16792;SDS011;8513;42.662;23.350;2023-02-28T01:33:35;22.90;;;20.33;;
16792;SDS011;8513;42.662;23.350;2023-02-28T01:36:03;23.83;;;21.13;;
16792;SDS011;8513;42.662;23.350;2023-02-28T01:38:30;24.37;;;21.80;;
16792;SDS011;8513;42.662;23.350;2023-02-28T01:40:56;22.57;;;20.23;;
16792;SDS011;8513;42.662;23.350;2023-02-28T01:43:26;21.87;;;19.57;;
16792;SDS011;8513;42.662;23.350;2023-02-28T01:45:54;23.47;;;20.97;;
16792;SDS011;8513;42.662;23.350;2023-02-28T01:48:21;24.47;;;21.87;;
16792;SDS011;8513;42.662;23.350;2023-02-28T01:50:53;23.17;;;20.67;;
16792;SDS011;8513;42.662;23.350;2023-02-28T01:53:24;23.40;;;20.90;;
16792;SDS011;8513;42.662;23.350;2023-02-28T01:55:55;23.43;;;20.93;;
16792;SDS011;8513;42.662;23.350;2023-02-28T01:58:21;24.40;;;21.43;;
16792;SDS011;8513;42.662;23.350;2023-02-28T02:00:47;22.90;;;20.60;;
16792;SDS011;8513;42.662;23.350;2023-02-28T02:03:14;25.20;;;21.90;;
16792;SDS011;8513;42.662;23.350;2023-02-28T02:05:44;25.53;;;21.73;;
16792;SDS011;8513;42.662;23.350;2023-02-28T02:08:13;25.77;;;23.00;;
16792;SDS011;8513;42.662;23.350;2023-02-28T02:10:44;26.33;;;23.50;;
16792;SDS011;8513;42.662;23.350;2023-02-28T02:32:25;25.00;;;21.70;;
16792;SDS011;8513;42.662;23.350;2023-02-28T02:42:36;25.27;;;22.60;;
16792;SDS011;8513;42.662;23.350;2023-02-28T02:45:15;26.63;;;22.20;;
16792;SDS011;8513;42.662;23.350;2023-02-28T02:47:46;25.33;;;22.73;;
16792;SDS011;8513;42.662;23.350;2023-02-28T02:50:17;26.97;;;22.30;;
16792;SDS011;8513;42.662;23.350;2023-02-28T02:52:49;25.43;;;22.73;;
16792;SDS011;8513;42.662;23.350;2023-02-28T02:55:18;23.77;;;21.23;;
16792;SDS011;8513;42.662;23.350;2023-02-28T02:57:58;26.23;;;22.30;;
16792;SDS011;8513;42.662;23.350;2023-02-28T03:00:29;25.47;;;22.30;;
16792;SDS011;8513;42.662;23.350;2023-02-28T03:02:59;25.20;;;22.50;;
16792;SDS011;8513;42.662;23.350;2023-02-28T03:05:27;26.77;;;23.20;;
16792;SDS011;8513;42.662;23.350;2023-02-28T03:08:14;25.70;;;22.47;;
16792;SDS011;8513;42.662;23.350;2023-02-28T03:10:44;27.40;;;24.50;;
16792;SDS011;8513;42.662;23.350;2023-02-28T03:15:49;25.43;;;22.73;;
16792;SDS011;8513;42.662;23.350;2023-02-28T03:26:39;28.63;;;23.40;;
16792;SDS011;8513;42.662;23.350;2023-02-28T03:32:04;30.63;;;24.53;;
16792;SDS011;8513;42.662;23.350;2023-02-28T03:34:41;28.60;;;25.23;;
16792;SDS011;8513;42.662;23.350;2023-02-28T03:37:13;29.83;;;25.43;;
16792;SDS011;8513;42.662;23.350;2023-02-28T03:39:46;27.80;;;24.83;;
16792;SDS011;8513;42.662;23.350;2023-02-28T03:42:18;27.00;;;24.13;;
16792;SDS011;8513;42.662;23.350;2023-02-28T03:44:57;29.17;;;24.80;;
16792;SDS011;8513;42.662;23.350;2023-02-28T03:50:05;29.03;;;25.90;;
16792;SDS011;8513;42.662;23.350;2023-02-28T03:52:33;33.80;;;27.30;;
16792;SDS011;8513;42.662;23.350;2023-02-28T03:55:04;34.97;;;28.37;;
16792;SDS011;8513;42.662;23.350;2023-02-28T04:02:39;35.93;;;28.73;;
16792;SDS011;8513;42.662;23.350;2023-02-28T04:05:06;40.30;;;29.53;;
16792;SDS011;8513;42.662;23.350;2023-02-28T04:07:32;37.77;;;29.40;;
16792;SDS011;8513;42.662;23.350;2023-02-28T04:09:58;35.73;;;28.57;;
16792;SDS011;8513;42.662;23.350;2023-02-28T04:12:24;39.83;;;29.60;;
16792;SDS011;8513;42.662;23.350;2023-02-28T04:14:49;36.57;;;29.63;;
16792;SDS011;8513;42.662;23.350;2023-02-28T04:17:15;33.83;;;27.03;;
16792;SDS011;8513;42.662;23.350;2023-02-28T04:19:41;28.53;;;23.23;;
16792;SDS011;8513;42.662;23.350;2023-02-28T04:22:07;31.23;;;25.33;;
16792;SDS011;8513;42.662;23.350;2023-02-28T04:24:34;26.63;;;22.70;;
16792;SDS011;8513;42.662;23.350;2023-02-28T04:26:59;28.63;;;23.67;;
16792;SDS011;8513;42.662;23.350;2023-02-28T04:29:34;29.17;;;23.53;;
16792;SDS011;8513;42.662;23.350;2023-02-28T04:32:00;27.93;;;23.60;;
16792;SDS011;8513;42.662;23.350;2023-02-28T04:34:27;30.80;;;24.57;;
16792;SDS011;8513;42.662;23.350;2023-02-28T04:36:53;28.00;;;23.40;;
16792;SDS011;8513;42.662;23.350;2023-02-28T04:39:20;29.53;;;22.97;;
16792;SDS011;8513;42.662;23.350;2023-02-28T04:41:47;31.43;;;25.30;;
16792;SDS011;8513;42.662;23.350;2023-02-28T04:44:13;33.37;;;25.60;;
16792;SDS011;8513;42.662;23.350;2023-02-28T04:46:39;31.17;;;24.53;;
16792;SDS011;8513;42.662;23.350;2023-02-28T04:49:04;28.17;;;24.13;;
16792;SDS011;8513;42.662;23.350;2023-02-28T04:51:30;31.03;;;24.67;;
16792;SDS011;8513;42.662;23.350;2023-02-28T04:53:55;29.13;;;24.60;;
16792;SDS011;8513;42.662;23.350;2023-02-28T04:56:21;33.27;;;25.77;;
16792;SDS011;8513;42.662;23.350;2023-02-28T04:58:47;32.87;;;26.83;;
16792;SDS011;8513;42.662;23.350;2023-02-28T05:03:54;31.03;;;26.50;;
16792;SDS011;8513;42.662;23.350;2023-02-28T05:06:22;32.77;;;27.50;;
16792;SDS011;8513;42.662;23.350;2023-02-28T05:08:49;40.37;;;29.57;;
16792;SDS011;8513;42.662;23.350;2023-02-28T05:11:17;35.20;;;28.70;;
16792;SDS011;8513;42.662;23.350;2023-02-28T05:13:44;38.40;;;30.00;;
16792;SDS011;8513;42.662;23.350;2023-02-28T05:16:10;43.13;;;31.53;;
16792;SDS011;8513;42.662;23.350;2023-02-28T05:18:35;41.60;;;30.70;;
16792;SDS011;8513;42.662;23.350;2023-02-28T05:21:01;39.27;;;31.03;;
16792;SDS011;8513;42.662;23.350;2023-02-28T05:23:27;37.23;;;29.90;;
16792;SDS011;8513;42.662;23.350;2023-02-28T05:25:53;40.20;;;32.43;;
16792;SDS011;8513;42.662;23.350;2023-02-28T05:28:19;37.80;;;29.37;;
16792;SDS011;8513;42.662;23.350;2023-02-28T05:30:45;36.90;;;30.30;;
16792;SDS011;8513;42.662;23.350;2023-02-28T05:33:11;43.50;;;33.03;;
16792;SDS011;8513;42.662;23.350;2023-02-28T05:35:38;46.93;;;34.17;;
16792;SDS011;8513;42.662;23.350;2023-02-28T05:38:07;42.67;;;33.13;;
16792;SDS011;8513;42.662;23.350;2023-02-28T05:40:33;45.10;;;33.97;;
16792;SDS011;8513;42.662;23.350;2023-02-28T05:42:59;45.20;;;33.43;;
16792;SDS011;8513;42.662;23.350;2023-02-28T05:45:24;40.33;;;32.67;;
16792;SDS011;8513;42.662;23.350;2023-02-28T05:47:53;44.10;;;33.60;;
16792;SDS011;8513;42.662;23.350;2023-02-28T05:50:18;47.30;;;34.67;;
16792;SDS011;8513;42.662;23.350;2023-02-28T05:52:48;48.43;;;36.13;;
16792;SDS011;8513;42.662;23.350;2023-02-28T05:55:14;48.17;;;36.20;;
16792;SDS011;8513;42.662;23.350;2023-02-28T05:57:40;47.27;;;35.97;;
16792;SDS011;8513;42.662;23.350;2023-02-28T06:00:05;49.43;;;36.97;;
16792;SDS011;8513;42.662;23.350;2023-02-28T06:02:31;48.70;;;37.03;;
16792;SDS011;8513;42.662;23.350;2023-02-28T06:04:57;54.60;;;37.73;;
16792;SDS011;8513;42.662;23.350;2023-02-28T06:07:22;48.97;;;35.63;;
16792;SDS011;8513;42.662;23.350;2023-02-28T06:09:47;47.73;;;36.50;;
16792;SDS011;8513;42.662;23.350;2023-02-28T06:12:13;49.43;;;36.77;;
16792;SDS011;8513;42.662;23.350;2023-02-28T06:14:38;48.37;;;35.00;;
16792;SDS011;8513;42.662;23.350;2023-02-28T06:17:04;47.63;;;34.73;;
16792;SDS011;8513;42.662;23.350;2023-02-28T06:19:54;46.10;;;35.93;;
16792;SDS011;8513;42.662;23.350;2023-02-28T06:22:44;46.63;;;33.77;;
16792;SDS011;8513;42.662;23.350;2023-02-28T06:25:35;41.97;;;33.03;;
16792;SDS011;8513;42.662;23.350;2023-02-28T06:28:04;40.70;;;32.43;;
16792;SDS011;8513;42.662;23.350;2023-02-28T06:30:29;43.33;;;32.83;;
16792;SDS011;8513;42.662;23.350;2023-02-28T06:32:56;42.47;;;32.03;;
16792;SDS011;8513;42.662;23.350;2023-02-28T06:35:21;42.03;;;34.00;;
16792;SDS011;8513;42.662;23.350;2023-02-28T06:37:47;41.77;;;32.87;;
16792;SDS011;8513;42.662;23.350;2023-02-28T06:40:12;41.43;;;34.57;;
16792;SDS011;8513;42.662;23.350;2023-02-28T06:42:38;39.07;;;32.30;;
16792;SDS011;8513;42.662;23.350;2023-02-28T06:45:03;44.37;;;33.07;;
16792;SDS011;8513;42.662;23.350;2023-02-28T06:47:34;47.10;;;34.07;;
16792;SDS011;8513;42.662;23.350;2023-02-28T06:50:00;41.10;;;32.17;;
16792;SDS011;8513;42.662;23.350;2023-02-28T06:52:26;43.53;;;32.70;;
16792;SDS011;8513;42.662;23.350;2023-02-28T06:54:51;40.83;;;32.27;;
16792;SDS011;8513;42.662;23.350;2023-02-28T06:57:34;42.30;;;33.40;;
16792;SDS011;8513;42.662;23.350;2023-02-28T07:00:01;37.27;;;29.77;;
16792;SDS011;8513;42.662;23.350;2023-02-28T07:02:30;41.17;;;31.13;;
16792;SDS011;8513;42.662;23.350;2023-02-28T07:04:56;40.57;;;30.90;;
16792;SDS011;8513;42.662;23.350;2023-02-28T07:07:22;36.60;;;29.47;;
16792;SDS011;8513;42.662;23.350;2023-02-28T07:09:47;36.20;;;28.87;;
16792;SDS011;8513;42.662;23.350;2023-02-28T07:12:13;39.97;;;30.00;;
16792;SDS011;8513;42.662;23.350;2023-02-28T07:14:38;36.23;;;29.07;;
16792;SDS011;8513;42.662;23.350;2023-02-28T07:17:04;38.40;;;31.07;;
16792;SDS011;8513;42.662;23.350;2023-02-28T07:19:32;38.23;;;30.70;;
16792;SDS011;8513;42.662;23.350;2023-02-28T07:21:57;36.50;;;30.17;;
16792;SDS011;8513;42.662;23.350;2023-02-28T07:24:23;39.73;;;30.27;;
16792;SDS011;8513;42.662;23.350;2023-02-28T07:26:50;36.10;;;30.23;;
16792;SDS011;8513;42.662;23.350;2023-02-28T07:29:16;34.43;;;28.90;;
16792;SDS011;8513;42.662;23.350;2023-02-28T07:31:41;36.50;;;31.10;;
16792;SDS011;8513;42.662;23.350;2023-02-28T07:34:07;32.60;;;28.83;;
16792;SDS011;8513;42.662;23.350;2023-02-28T07:36:32;34.03;;;27.93;;
16792;SDS011;8513;42.662;23.350;2023-02-28T07:38:58;36.77;;;28.73;;
16792;SDS011;8513;42.662;23.350;2023-02-28T07:41:24;31.80;;;27.93;;
16792;SDS011;8513;42.662;23.350;2023-02-28T07:43:53;32.90;;;27.33;;
16792;SDS011;8513;42.662;23.350;2023-02-28T07:46:20;29.73;;;25.97;;
16792;SDS011;8513;42.662;23.350;2023-02-28T07:48:46;33.53;;;29.67;;
16792;SDS011;8513;42.662;23.350;2023-02-28T07:51:11;31.63;;;27.93;;
16792;SDS011;8513;42.662;23.350;2023-02-28T07:53:37;29.97;;;26.73;;
16792;SDS011;8513;42.662;23.350;2023-02-28T07:56:02;32.67;;;27.07;;
16792;SDS011;8513;42.662;23.350;2023-02-28T07:58:29;30.83;;;26.57;;
16792;SDS011;8513;42.662;23.350;2023-02-28T08:00:55;27.80;;;24.30;;
16792;SDS011;8513;42.662;23.350;2023-02-28T08:03:21;34.83;;;27.03;;
16792;SDS011;8513;42.662;23.350;2023-02-28T08:05:48;29.37;;;25.93;;
16792;SDS011;8513;42.662;23.350;2023-02-28T08:08:14;29.27;;;25.53;;
16792;SDS011;8513;42.662;23.350;2023-02-28T08:10:40;27.73;;;23.73;;
16792;SDS011;8513;42.662;23.350;2023-02-28T08:13:06;28.50;;;23.17;;
16792;SDS011;8513;42.662;23.350;2023-02-28T08:15:32;29.10;;;23.30;;
16792;SDS011;8513;42.662;23.350;2023-02-28T08:17:57;30.73;;;24.77;;
16792;SDS011;8513;42.662;23.350;2023-02-28T08:20:23;27.30;;;22.00;;
16792;SDS011;8513;42.662;23.350;2023-02-28T08:22:49;27.07;;;24.17;;
16792;SDS011;8513;42.662;23.350;2023-02-28T08:25:15;32.00;;;23.03;;
16792;SDS011;8513;42.662;23.350;2023-02-28T08:27:40;28.43;;;23.00;;
16792;SDS011;8513;42.662;23.350;2023-02-28T08:30:07;29.90;;;23.80;;
16792;SDS011;8513;42.662;23.350;2023-02-28T08:32:34;27.63;;;24.20;;
16792;SDS011;8513;42.662;23.350;2023-02-28T08:35:00;28.60;;;23.00;;
16792;SDS011;8513;42.662;23.350;2023-02-28T08:37:26;30.73;;;24.93;;
16792;SDS011;8513;42.662;23.350;2023-02-28T08:39:52;30.47;;;25.27;;
16792;SDS011;8513;42.662;23.350;2023-02-28T08:42:17;29.90;;;24.07;;
16792;SDS011;8513;42.662;23.350;2023-02-28T08:44:43;28.63;;;23.90;;
16792;SDS011;8513;42.662;23.350;2023-02-28T08:47:08;30.73;;;24.03;;
16792;SDS011;8513;42.662;23.350;2023-02-28T08:49:34;33.90;;;25.70;;
16792;SDS011;8513;42.662;23.350;2023-02-28T08:51:59;30.20;;;25.07;;
16792;SDS011;8513;42.662;23.350;2023-02-28T08:54:25;27.93;;;23.67;;
16792;SDS011;8513;42.662;23.350;2023-02-28T08:56:51;27.43;;;22.90;;
16792;SDS011;8513;42.662;23.350;2023-02-28T08:59:16;32.47;;;23.57;;
16792;SDS011;8513;42.662;23.350;2023-02-28T09:01:42;24.90;;;18.10;;
16792;SDS011;8513;42.662;23.350;2023-02-28T09:04:08;28.03;;;19.63;;
16792;SDS011;8513;42.662;23.350;2023-02-28T09:06:35;26.20;;;22.80;;
16792;SDS011;8513;42.662;23.350;2023-02-28T09:09:01;34.57;;;26.43;;
16792;SDS011;8513;42.662;23.350;2023-02-28T09:11:28;33.63;;;26.47;;
16792;SDS011;8513;42.662;23.350;2023-02-28T09:13:53;34.70;;;26.20;;
16792;SDS011;8513;42.662;23.350;2023-02-28T09:16:20;31.13;;;26.73;;
16792;SDS011;8513;42.662;23.350;2023-02-28T09:18:46;33.47;;;26.10;;
16792;SDS011;8513;42.662;23.350;2023-02-28T09:21:14;34.33;;;25.07;;
16792;SDS011;8513;42.662;23.350;2023-02-28T09:23:41;30.90;;;24.85;;
16792;SDS011;8513;42.662;23.350;2023-02-28T09:26:11;36.50;;;26.80;;
16792;SDS011;8513;42.662;23.350;2023-02-28T09:28:39;41.23;;;29.00;;
16792;SDS011;8513;42.662;23.350;2023-02-28T09:31:04;36.03;;;24.53;;
16792;SDS011;8513;42.662;23.350;2023-02-28T09:33:30;34.03;;;22.73;;
16792;SDS011;8513;42.662;23.350;2023-02-28T09:35:59;34.80;;;26.10;;
16792;SDS011;8513;42.662;23.350;2023-02-28T09:38:26;37.83;;;23.47;;
16792;SDS011;8513;42.662;23.350;2023-02-28T09:40:53;24.43;;;18.43;;
16792;SDS011;8513;42.662;23.350;2023-02-28T09:43:23;28.20;;;16.37;;
16792;SDS011;8513;42.662;23.350;2023-02-28T09:45:56;26.17;;;18.17;;
16792;SDS011;8513;42.662;23.350;2023-02-28T09:48:35;27.83;;;17.90;;
16792;SDS011;8513;42.662;23.350;2023-02-28T09:53:48;23.88;;;15.65;;
16792;SDS011;8513;42.662;23.350;2023-02-28T09:56:21;23.55;;;15.68;;
16792;SDS011;8513;42.662;23.350;2023-02-28T09:58:59;23.13;;;15.98;;
16792;SDS011;8513;42.662;23.350;2023-02-28T10:07:00;19.80;;;14.38;;
16792;SDS011;8513;42.662;23.350;2023-02-28T10:09:32;20.52;;;14.50;;
16792;SDS011;8513;42.662;23.350;2023-02-28T10:12:03;22.48;;;14.52;;
16792;SDS011;8513;42.662;23.350;2023-02-28T10:14:32;22.80;;;14.35;;
16792;SDS011;8513;42.662;23.350;2023-02-28T10:17:12;22.70;;;14.55;;
16792;SDS011;8513;42.662;23.350;2023-02-28T10:25:01;22.80;;;13.85;;
16792;SDS011;8513;42.662;23.350;2023-02-28T10:27:41;22.70;;;13.65;;
16792;SDS011;8513;42.662;23.350;2023-02-28T10:30:09;17.63;;;12.85;;
16792;SDS011;8513;42.662;23.350;2023-02-28T10:32:37;20.55;;;13.50;;
16792;SDS011;8513;42.662;23.350;2023-02-28T10:37:44;21.40;;;13.57;;
16792;SDS011;8513;42.662;23.350;2023-02-28T10:43:04;17.15;;;11.85;;
16792;SDS011;8513;42.662;23.350;2023-02-28T10:45:32;17.90;;;11.80;;
16792;SDS011;8513;42.662;23.350;2023-02-28T11:01:45;17.77;;;11.63;;
16792;SDS011;8513;42.662;23.350;2023-02-28T11:04:31;19.25;;;11.75;;
16792;SDS011;8513;42.662;23.350;2023-02-28T11:07:05;18.40;;;11.98;;
16792;SDS011;8513;42.662;23.350;2023-02-28T11:09:41;20.35;;;12.13;;
16792;SDS011;8513;42.662;23.350;2023-02-28T11:14:51;17.45;;;11.40;;
16792;SDS011;8513;42.662;23.350;2023-02-28T11:17:20;20.83;;;12.02;;
16792;SDS011;8513;42.662;23.350;2023-02-28T11:19:50;22.08;;;12.00;;
16792;SDS011;8513;42.662;23.350;2023-02-28T11:22:19;22.13;;;12.73;;
16792;SDS011;8513;42.662;23.350;2023-02-28T11:24:50;18.17;;;12.23;;
16792;SDS011;8513;42.662;23.350;2023-02-28T11:30:17;22.92;;;11.15;;
16792;SDS011;8513;42.662;23.350;2023-02-28T11:36:08;17.48;;;12.10;;
16792;SDS011;8513;42.662;23.350;2023-02-28T11:39:03;18.92;;;12.25;;
16792;SDS011;8513;42.662;23.350;2023-02-28T11:52:52;19.45;;;14.15;;
16792;SDS011;8513;42.662;23.350;2023-02-28T11:55:21;25.10;;;14.80;;
16792;SDS011;8513;42.662;23.350;2023-02-28T12:01:58;24.27;;;13.98;;
16792;SDS011;8513;42.662;23.350;2023-02-28T12:18:21;21.42;;;13.82;;
16792;SDS011;8513;42.662;23.350;2023-02-28T12:20:54;20.40;;;12.93;;
16792;SDS011;8513;42.662;23.350;2023-02-28T12:23:44;21.63;;;13.10;;
16792;SDS011;8513;42.662;23.350;2023-02-28T12:29:18;20.65;;;13.70;;
16792;SDS011;8513;42.662;23.350;2023-02-28T12:31:53;16.67;;;12.95;;
16792;SDS011;8513;42.662;23.350;2023-02-28T12:34:58;20.80;;;13.45;;
16792;SDS011;8513;42.662;23.350;2023-02-28T12:37:29;16.23;;;12.73;;
16792;SDS011;8513;42.662;23.350;2023-02-28T12:40:05;19.73;;;13.23;;
16792;SDS011;8513;42.662;23.350;2023-02-28T12:42:39;17.20;;;12.40;;
16792;SDS011;8513;42.662;23.350;2023-02-28T12:45:13;18.73;;;12.60;;
16792;SDS011;8513;42.662;23.350;2023-02-28T12:47:46;16.52;;;12.00;;
16792;SDS011;8513;42.662;23.350;2023-02-28T12:50:26;18.65;;;12.07;;
16792;SDS011;8513;42.662;23.350;2023-02-28T12:58:27;19.20;;;12.55;;
16792;SDS011;8513;42.662;23.350;2023-02-28T13:03:33;18.98;;;11.93;;
16792;SDS011;8513;42.662;23.350;2023-02-28T13:06:28;18.42;;;11.60;;
16792;SDS011;8513;42.662;23.350;2023-02-28T13:09:19;22.60;;;11.90;;
16792;SDS011;8513;42.662;23.350;2023-02-28T13:14:20;24.70;;;13.75;;
16792;SDS011;8513;42.662;23.350;2023-02-28T13:16:56;19.60;;;13.40;;
16792;SDS011;8513;42.662;23.350;2023-02-28T13:19:23;23.42;;;12.75;;
16792;SDS011;8513;42.662;23.350;2023-02-28T13:21:54;19.15;;;12.77;;
16792;SDS011;8513;42.662;23.350;2023-02-28T13:29:31;17.90;;;12.13;;
16792;SDS011;8513;42.662;23.350;2023-02-28T13:34:35;11.55;;;10.00;;
16792;SDS011;8513;42.662;23.350;2023-02-28T13:58:55;21.15;;;11.15;;
16792;SDS011;8513;42.662;23.350;2023-02-28T14:02:01;17.13;;;10.77;;
16792;SDS011;8513;42.662;23.350;2023-02-28T14:07:31;14.35;;;10.50;;
16792;SDS011;8513;42.662;23.350;2023-02-28T14:10:04;15.25;;;10.35;;
16792;SDS011;8513;42.662;23.350;2023-02-28T14:17:59;15.02;;;10.25;;
16792;SDS011;8513;42.662;23.350;2023-02-28T14:20:29;19.60;;;11.07;;
16792;SDS011;8513;42.662;23.350;2023-02-28T14:23:06;21.65;;;11.98;;
16792;SDS011;8513;42.662;23.350;2023-02-28T14:28:46;17.00;;;10.65;;
16792;SDS011;8513;42.662;23.350;2023-02-28T14:31:18;17.73;;;12.43;;
16792;SDS011;8513;42.662;23.350;2023-02-28T14:36:23;23.58;;;11.82;;
16792;SDS011;8513;42.662;23.350;2023-02-28T14:38:53;18.30;;;11.57;;
16792;SDS011;8513;42.662;23.350;2023-02-28T14:41:29;19.50;;;11.57;;
16792;SDS011;8513;42.662;23.350;2023-02-28T14:43:58;15.05;;;11.30;;
16792;SDS011;8513;42.662;23.350;2023-02-28T14:46:30;18.48;;;11.40;;
16792;SDS011;8513;42.662;23.350;2023-02-28T14:49:03;18.30;;;11.27;;
16792;SDS011;8513;42.662;23.350;2023-02-28T14:51:30;21.70;;;11.10;;
16792;SDS011;8513;42.662;23.350;2023-02-28T14:53:57;14.82;;;10.02;;
16792;SDS011;8513;42.662;23.350;2023-02-28T14:56:32;17.15;;;11.05;;
16792;SDS011;8513;42.662;23.350;2023-02-28T14:59:03;17.95;;;10.80;;
16792;SDS011;8513;42.662;23.350;2023-02-28T15:01:30;16.92;;;11.15;;
16792;SDS011;8513;42.662;23.350;2023-02-28T15:04:05;16.48;;;10.35;;
16792;SDS011;8513;42.662;23.350;2023-02-28T15:06:43;17.55;;;11.13;;
16792;SDS011;8513;42.662;23.350;2023-02-28T15:09:09;18.35;;;11.38;;
16792;SDS011;8513;42.662;23.350;2023-02-28T15:11:45;16.52;;;10.02;;
16792;SDS011;8513;42.662;23.350;2023-02-28T15:14:15;16.23;;;11.13;;
16792;SDS011;8513;42.662;23.350;2023-02-28T15:16:44;20.73;;;11.30;;
16792;SDS011;8513;42.662;23.350;2023-02-28T15:19:19;16.38;;;10.73;;
16792;SDS011;8513;42.662;23.350;2023-02-28T15:21:51;17.73;;;10.88;;
16792;SDS011;8513;42.662;23.350;2023-02-28T15:24:24;14.32;;;8.18;;
16792;SDS011;8513;42.662;23.350;2023-02-28T15:26:59;15.40;;;8.43;;
16792;SDS011;8513;42.662;23.350;2023-02-28T15:29:29;14.40;;;9.13;;
16792;SDS011;8513;42.662;23.350;2023-02-28T15:32:06;16.40;;;9.55;;
16792;SDS011;8513;42.662;23.350;2023-02-28T15:37:01;17.63;;;9.52;;
16792;SDS011;8513;42.662;23.350;2023-02-28T15:39:50;13.63;;;8.65;;
16792;SDS011;8513;42.662;23.350;2023-02-28T15:42:20;11.82;;;8.10;;
16792;SDS011;8513;42.662;23.350;2023-02-28T15:44:47;11.38;;;8.77;;
16792;SDS011;8513;42.662;23.350;2023-02-28T15:47:16;12.93;;;9.23;;
16792;SDS011;8513;42.662;23.350;2023-02-28T15:49:51;15.95;;;9.15;;
16792;SDS011;8513;42.662;23.350;2023-02-28T15:52:19;15.60;;;8.13;;
16792;SDS011;8513;42.662;23.350;2023-02-28T15:55:10;14.70;;;8.95;;
16792;SDS011;8513;42.662;23.350;2023-02-28T15:57:48;12.25;;;8.77;;
16792;SDS011;8513;42.662;23.350;2023-02-28T16:00:18;9.95;;;7.40;;
16792;SDS011;8513;42.662;23.350;2023-02-28T16:02:47;10.73;;;9.27;;
16792;SDS011;8513;42.662;23.350;2023-02-28T16:07:55;9.57;;;8.43;;
16792;SDS011;8513;42.662;23.350;2023-02-28T16:10:23;9.65;;;8.65;;
16792;SDS011;8513;42.662;23.350;2023-02-28T16:12:52;12.65;;;9.00;;
16792;SDS011;8513;42.662;23.350;2023-02-28T16:15:23;11.87;;;8.20;;
16792;SDS011;8513;42.662;23.350;2023-02-28T16:17:51;11.02;;;7.78;;
16792;SDS011;8513;42.662;23.350;2023-02-28T16:20:19;10.83;;;7.93;;
16792;SDS011;8513;42.662;23.350;2023-02-28T16:22:49;11.47;;;7.73;;
16792;SDS011;8513;42.662;23.350;2023-02-28T16:25:19;13.45;;;7.93;;
16792;SDS011;8513;42.662;23.350;2023-02-28T16:27:48;8.43;;;7.53;;
16792;SDS011;8513;42.662;23.350;2023-02-28T16:30:25;9.77;;;7.35;;
16792;SDS011;8513;42.662;23.350;2023-02-28T16:32:53;8.83;;;6.70;;
16792;SDS011;8513;42.662;23.350;2023-02-28T16:35:20;11.85;;;7.80;;
16792;SDS011;8513;42.662;23.350;2023-02-28T16:37:46;8.65;;;7.75;;
16792;SDS011;8513;42.662;23.350;2023-02-28T16:40:16;8.10;;;7.07;;
16792;SDS011;8513;42.662;23.350;2023-02-28T16:42:43;10.52;;;7.53;;
16792;SDS011;8513;42.662;23.350;2023-02-28T16:45:18;8.77;;;7.60;;
16792;SDS011;8513;42.662;23.350;2023-02-28T16:47:47;8.98;;;6.82;;
16792;SDS011;8513;42.662;23.350;2023-02-28T16:50:23;9.70;;;7.00;;
16792;SDS011;8513;42.662;23.350;2023-02-28T16:52:50;9.70;;;6.47;;
16792;SDS011;8513;42.662;23.350;2023-02-28T16:55:20;7.20;;;6.50;;
16792;SDS011;8513;42.662;23.350;2023-02-28T16:57:56;10.47;;;5.57;;
16792;SDS011;8513;42.662;23.350;2023-02-28T17:00:24;7.40;;;6.23;;
16792;SDS011;8513;42.662;23.350;2023-02-28T17:02:52;7.13;;;5.80;;
16792;SDS011;8513;42.662;23.350;2023-02-28T17:05:17;8.18;;;5.72;;
16792;SDS011;8513;42.662;23.350;2023-02-28T17:07:43;7.97;;;5.90;;
16792;SDS011;8513;42.662;23.350;2023-02-28T17:10:11;6.13;;;5.53;;
16792;SDS011;8513;42.662;23.350;2023-02-28T17:12:39;8.93;;;6.00;;
16792;SDS011;8513;42.662;23.350;2023-02-28T17:15:05;6.90;;;5.25;;
16792;SDS011;8513;42.662;23.350;2023-02-28T17:17:32;6.22;;;5.35;;
16792;SDS011;8513;42.662;23.350;2023-02-28T17:19:58;5.07;;;4.50;;
16792;SDS011;8513;42.662;23.350;2023-02-28T17:22:24;8.87;;;4.67;;
16792;SDS011;8513;42.662;23.350;2023-02-28T17:24:51;6.53;;;5.47;;
16792;SDS011;8513;42.662;23.350;2023-02-28T17:27:20;5.47;;;4.47;;
16792;SDS011;8513;42.662;23.350;2023-02-28T17:29:46;8.20;;;5.57;;
16792;SDS011;8513;42.662;23.350;2023-02-28T17:32:12;8.23;;;5.70;;
16792;SDS011;8513;42.662;23.350;2023-02-28T17:34:37;9.20;;;5.47;;
16792;SDS011;8513;42.662;23.350;2023-02-28T17:37:03;6.30;;;4.93;;
16792;SDS011;8513;42.662;23.350;2023-02-28T17:39:29;8.23;;;4.93;;